Pocahontas, Virginia
Current Conditions -  °F | °C
As of 3:14 PM on Wednesday 26 Nov 2014 (Local Time) from KBLF Reporting Station
Haze Haze  
Wind Chill: 32°   Ceiling: 200
Heat Index: 36°   Visibility: 1.7mi
Dew Point: 33°   Wind: 5mph
Humidity: 89%   Direction: 270°W
Pressure: 29.95"   Gusts: NA
Location:  37.3°N, 81.34°W
Report Text: KBLF 262014Z AUTO 27004KT 1 3/4SM BR OVC002 02/01 A2995 RMK AO2 T00220006
Loading
Personal Weather Stations






























Interactive Weather Map New forecast layout! Learn more

10-Day Weather Forecast

Advertisements
Track Severe Weather on mobile